createdAt,value
2017-09-20T00:00:37.429Z,0
2017-09-20T00:01:37.727Z,0
2017-09-20T00:02:37.720Z,0
2017-09-20T00:03:37.712Z,0
2017-09-20T00:04:37.707Z,0
2017-09-20T00:05:37.693Z,0
2017-09-20T00:06:37.694Z,0
2017-09-20T00:07:37.688Z,0
2017-09-20T00:08:37.665Z,0
2017-09-20T00:09:37.665Z,0
2017-09-20T00:10:37.651Z,0
2017-09-20T00:11:37.639Z,0
2017-09-20T00:12:37.323Z,0
2017-09-20T00:13:37.620Z,0
2017-09-20T00:14:37.618Z,0
2017-09-20T00:15:37.297Z,0
2017-09-20T00:16:37.609Z,0
2017-09-20T00:17:37.586Z,0
2017-09-20T00:18:37.577Z,0
2017-09-20T00:19:37.570Z,0
2017-09-20T00:20:37.564Z,0
2017-09-20T00:21:37.550Z,0
2017-09-20T00:22:37.539Z,0
2017-09-20T00:23:37.528Z,0
2017-09-20T00:24:37.555Z,0
2017-09-20T00:25:37.527Z,0
2017-09-20T00:26:37.508Z,0
2017-09-20T00:27:37.501Z,0
2017-09-20T00:28:37.491Z,0
2017-09-20T00:29:37.479Z,0
2017-09-20T00:30:37.475Z,0
2017-09-20T00:31:37.461Z,0
2017-09-20T00:32:37.454Z,0
2017-09-20T00:33:37.439Z,0
2017-09-20T00:34:37.439Z,0
2017-09-20T00:35:37.462Z,0
2017-09-20T00:36:37.416Z,0
2017-09-20T00:37:37.408Z,0
2017-09-20T00:38:37.406Z,0
2017-09-20T00:39:37.389Z,0
2017-09-20T00:40:36.453Z,0
2017-09-20T00:41:37.372Z,0
2017-09-20T00:42:37.360Z,0
2017-09-20T00:43:37.354Z,0
2017-09-20T00:44:37.343Z,0
2017-09-20T00:45:37.030Z,0
2017-09-20T00:46:37.330Z,0
2017-09-20T00:47:37.324Z,0
2017-09-20T00:48:37.003Z,0
2017-09-20T00:49:37.300Z,0
2017-09-20T00:50:37.503Z,0
2017-09-20T00:51:37.279Z,0
2017-09-20T00:52:37.269Z,0
2017-09-20T00:53:36.958Z,0
2017-09-20T00:54:37.252Z,0
2017-09-20T00:55:37.246Z,0
2017-09-20T00:56:37.270Z,0
2017-09-20T00:57:37.228Z,0
2017-09-20T00:58:37.217Z,0
2017-09-20T00:59:37.206Z,0
2017-09-20T01:00:37.194Z,0
2017-09-20T01:01:37.189Z,0
2017-09-20T01:02:37.180Z,0
2017-09-20T01:03:37.171Z,0
2017-09-20T01:04:36.853Z,0
2017-09-20T01:05:36.843Z,0
2017-09-20T01:06:37.139Z,0
2017-09-20T01:07:37.129Z,0
2017-09-20T01:08:36.817Z,0
2017-09-20T01:09:36.811Z,0
2017-09-20T01:10:37.115Z,0
2017-09-20T01:11:37.103Z,0
2017-09-20T01:12:37.090Z,0
2017-09-20T01:13:36.769Z,0
2017-09-20T01:14:37.070Z,0
2017-09-20T01:15:37.061Z,0
2017-09-20T01:16:37.049Z,0
2017-09-20T01:17:37.036Z,0
2017-09-20T01:18:37.030Z,0
2017-09-20T01:19:37.017Z,0
2017-09-20T01:20:37.007Z,0
2017-09-20T01:21:37.001Z,0
2017-09-20T01:22:36.377Z,0
2017-09-20T01:23:36.674Z,0
2017-09-20T01:24:36.661Z,0
2017-09-20T01:25:36.663Z,0
2017-09-20T01:26:36.644Z,0
2017-09-20T01:27:36.952Z,0
2017-09-20T01:28:36.938Z,0
2017-09-20T01:29:36.925Z,0
2017-09-20T01:30:36.917Z,0
2017-09-20T01:31:36.605Z,0
2017-09-20T01:32:36.895Z,0
2017-09-20T01:33:36.888Z,0
2017-09-20T01:34:36.885Z,0
2017-09-20T01:35:36.871Z,0
2017-09-20T01:36:36.860Z,0
2017-09-20T01:37:36.546Z,0
2017-09-20T01:38:36.840Z,0
2017-09-20T01:39:36.832Z,0
2017-09-20T01:40:36.523Z,0
2017-09-20T01:41:36.819Z,0
2017-09-20T01:42:36.803Z,0
2017-09-20T01:43:36.801Z,0
2017-09-20T01:44:36.786Z,0
2017-09-20T01:45:36.776Z,0
2017-09-20T01:46:36.776Z,0
2017-09-20T01:47:36.447Z,0
2017-09-20T01:48:36.749Z,0
2017-09-20T01:49:36.743Z,0
2017-09-20T01:50:36.730Z,0
2017-09-20T01:51:36.719Z,0
2017-09-20T01:52:36.404Z,0
2017-09-20T01:53:36.398Z,0
2017-09-20T01:54:36.695Z,0
2017-09-20T01:55:36.686Z,0
2017-09-20T01:56:36.672Z,0
2017-09-20T01:57:36.662Z,0
2017-09-20T01:58:36.659Z,0
2017-09-20T01:59:36.645Z,0
2017-09-20T02:00:36.635Z,0
2017-09-20T02:01:36.320Z,0
2017-09-20T02:02:36.613Z,0
2017-09-20T02:03:36.007Z,0
2017-09-20T02:04:36.597Z,0
2017-09-20T02:05:36.588Z,0
2017-09-20T02:06:36.578Z,0
2017-09-20T02:07:36.575Z,0
2017-09-20T02:08:36.570Z,0
2017-09-20T02:09:36.550Z,0
2017-09-20T02:10:36.541Z,0
2017-09-20T02:11:36.225Z,0
2017-09-20T02:12:36.524Z,0
2017-09-20T02:13:36.515Z,0
2017-09-20T02:14:36.506Z,0
2017-09-20T02:15:36.492Z,0
2017-09-20T02:16:36.490Z,0
2017-09-20T02:17:36.478Z,0
2017-09-20T02:18:36.193Z,0
2017-09-20T02:19:36.149Z,0
2017-09-20T02:20:36.449Z,0
2017-09-20T02:21:36.440Z,0
2017-09-20T02:22:36.437Z,0
2017-09-20T02:23:36.453Z,0
2017-09-20T02:24:36.102Z,0
2017-09-20T02:25:36.401Z,0
2017-09-20T02:26:36.391Z,0
2017-09-20T02:27:36.075Z,0
2017-09-20T02:28:36.372Z,0
2017-09-20T02:29:36.398Z,0
2017-09-20T02:30:36.357Z,0
2017-09-20T02:31:36.341Z,0
2017-09-20T02:32:36.332Z,0
2017-09-20T02:33:36.325Z,0
2017-09-20T02:34:36.312Z,0
2017-09-20T02:35:36.305Z,0
2017-09-20T02:36:35.676Z,0
2017-09-20T02:37:36.298Z,0
2017-09-20T02:38:35.965Z,0
2017-09-20T02:39:36.268Z,0
2017-09-20T02:40:36.257Z,0
2017-09-20T02:41:36.243Z,0
2017-09-20T02:42:36.242Z,0
2017-09-20T02:43:36.227Z,0
2017-09-20T02:44:36.225Z,0
2017-09-20T02:45:35.910Z,0
2017-09-20T02:46:36.201Z,0
2017-09-20T02:47:35.881Z,0
2017-09-20T02:48:36.180Z,0
2017-09-20T02:49:35.861Z,0
2017-09-20T02:50:36.162Z,0
2017-09-20T02:51:35.845Z,0
2017-09-20T02:52:36.147Z,0
2017-09-20T02:53:36.130Z,0
2017-09-20T02:54:36.131Z,0
2017-09-20T02:55:36.112Z,0
2017-09-20T02:56:36.099Z,0
2017-09-20T02:57:35.779Z,0
2017-09-20T02:58:36.081Z,0
2017-09-20T02:59:35.454Z,0
2017-09-20T03:00:36.063Z,0
2017-09-20T03:01:35.745Z,0
2017-09-20T03:02:36.042Z,0
2017-09-20T03:03:36.043Z,0
2017-09-20T03:04:36.063Z,0
2017-09-20T03:05:36.022Z,0
2017-09-20T03:06:35.692Z,0
2017-09-20T03:07:35.688Z,0
2017-09-20T03:08:36.018Z,0
2017-09-20T03:09:35.980Z,0
2017-09-20T03:10:35.968Z,0
2017-09-20T03:11:36.156Z,0
2017-09-20T03:12:35.948Z,0
2017-09-20T03:13:35.937Z,0
2017-09-20T03:14:35.922Z,0
2017-09-20T03:15:35.920Z,0
2017-09-20T03:16:35.904Z,0
2017-09-20T03:17:35.900Z,0
2017-09-20T03:18:35.891Z,0
2017-09-20T03:19:35.879Z,0
2017-09-20T03:20:35.868Z,0
2017-09-20T03:21:35.858Z,0
2017-09-20T03:22:35.853Z,0
2017-09-20T03:23:35.840Z,0
2017-09-20T03:24:35.831Z,0
2017-09-20T03:25:35.823Z,0
2017-09-20T03:26:35.807Z,0
2017-09-20T03:27:35.817Z,0
2017-09-20T03:28:35.791Z,0
2017-09-20T03:29:35.780Z,0
2017-09-20T03:30:35.773Z,0
2017-09-20T03:31:35.772Z,0
2017-09-20T03:32:35.754Z,0
2017-09-20T03:33:35.742Z,0
2017-09-20T03:34:35.737Z,0
2017-09-20T03:35:35.722Z,0
2017-09-20T03:36:35.402Z,0
2017-09-20T03:37:35.388Z,0
2017-09-20T03:38:35.386Z,0
2017-09-20T03:39:35.683Z,0
2017-09-20T03:40:35.675Z,0
2017-09-20T03:41:35.358Z,0
2017-09-20T03:42:35.658Z,0
2017-09-20T03:43:35.338Z,0
2017-09-20T03:44:35.324Z,0
2017-09-20T03:45:35.635Z,0
2017-09-20T03:46:35.306Z,0
2017-09-20T03:47:35.606Z,0
2017-09-20T03:48:35.598Z,0
2017-09-20T03:49:35.589Z,0
2017-09-20T03:50:35.579Z,0
2017-09-20T03:51:35.574Z,0
2017-09-20T03:52:35.560Z,0
2017-09-20T03:53:35.246Z,0
2017-09-20T03:54:35.538Z,0
2017-09-20T03:55:35.528Z,0
2017-09-20T03:56:35.520Z,0
2017-09-20T03:57:35.516Z,0
2017-09-20T03:58:35.496Z,0
2017-09-20T03:59:35.179Z,0
2017-09-20T04:00:35.179Z,0
2017-09-20T04:01:35.159Z,0
2017-09-20T04:02:35.460Z,0
2017-09-20T04:03:35.138Z,0
2017-09-20T04:04:35.443Z,0
2017-09-20T04:05:35.120Z,0
2017-09-20T04:06:35.417Z,0
2017-09-20T04:07:35.103Z,0
2017-09-20T04:08:35.410Z,0
2017-09-20T04:09:35.399Z,0
2017-09-20T04:10:35.072Z,0
2017-09-20T04:11:35.065Z,0
2017-09-20T04:12:35.051Z,0
2017-09-20T04:13:35.045Z,0
2017-09-20T04:14:35.350Z,4
2017-09-20T04:15:35.332Z,4
2017-09-20T04:16:34.704Z,0
2017-09-20T04:17:35.316Z,4
2017-09-20T04:18:35.299Z,4
2017-09-20T04:19:35.299Z,4
2017-09-20T04:20:35.280Z,8
2017-09-20T04:21:35.272Z,8
2017-09-20T04:22:35.268Z,12
2017-09-20T04:23:35.257Z,12
2017-09-20T04:24:35.240Z,12
2017-09-20T04:25:35.232Z,12
2017-09-20T04:26:35.236Z,16
2017-09-20T04:27:35.219Z,16
2017-09-20T04:28:34.893Z,20
2017-09-20T04:29:35.246Z,24
2017-09-20T04:30:35.188Z,24
2017-09-20T04:31:35.187Z,24
2017-09-20T04:32:35.168Z,32
2017-09-20T04:33:35.165Z,36
2017-09-20T04:34:35.149Z,40
2017-09-20T04:35:34.825Z,40
2017-09-20T04:36:35.127Z,48
2017-09-20T04:37:35.117Z,52
2017-09-20T04:38:35.118Z,56
2017-09-20T04:39:34.791Z,64
2017-09-20T04:40:35.092Z,72
2017-09-20T04:41:35.083Z,80
2017-09-20T04:42:35.081Z,88
2017-09-20T04:43:35.062Z,96
2017-09-20T04:44:35.054Z,112
2017-09-20T04:45:35.042Z,124
2017-09-20T04:46:35.037Z,140
2017-09-20T04:47:35.024Z,152
2017-09-20T04:48:35.020Z,168
2017-09-20T04:49:34.694Z,180
2017-09-20T04:50:34.993Z,192
2017-09-20T04:51:34.373Z,204
2017-09-20T04:52:34.986Z,212
2017-09-20T04:53:34.970Z,220
2017-09-20T04:54:34.348Z,232
2017-09-20T04:55:34.964Z,244
2017-09-20T04:56:34.953Z,252
2017-09-20T04:57:34.939Z,268
2017-09-20T04:58:34.928Z,288
2017-09-20T04:59:34.922Z,300
2017-09-20T05:00:34.913Z,316
2017-09-20T05:01:34.899Z,332
2017-09-20T05:02:34.892Z,352
2017-09-20T05:03:34.895Z,376
2017-09-20T05:04:34.889Z,396
2017-09-20T05:05:34.871Z,416
2017-09-20T05:06:34.548Z,440
2017-09-20T05:07:34.850Z,468
2017-09-20T05:08:34.841Z,500
2017-09-20T05:09:34.835Z,532
2017-09-20T05:10:34.823Z,560
2017-09-20T05:11:34.820Z,588
2017-09-20T05:12:34.807Z,624
2017-09-20T05:13:34.492Z,660
2017-09-20T05:14:34.486Z,684
2017-09-20T05:15:34.478Z,708
2017-09-20T05:16:34.777Z,728
2017-09-20T05:17:34.147Z,744
2017-09-20T05:18:34.449Z,756
2017-09-20T05:19:34.444Z,776
2017-09-20T05:20:34.432Z,796
2017-09-20T05:21:34.737Z,816
2017-09-20T05:22:34.735Z,840
2017-09-20T05:23:34.720Z,868
2017-09-20T05:24:34.399Z,892
2017-09-20T05:25:34.701Z,924
2017-09-20T05:26:34.699Z,952
2017-09-20T05:27:34.687Z,984
2017-09-20T05:28:34.368Z,1012
2017-09-20T05:29:34.663Z,1044
2017-09-20T05:30:34.658Z,1084
2017-09-20T05:31:34.654Z,1128
2017-09-20T05:32:34.645Z,1188
2017-09-20T05:33:34.641Z,1260
2017-09-20T05:34:34.635Z,1340
2017-09-20T05:35:34.619Z,1504
2017-09-20T05:36:34.306Z,1516
2017-09-20T05:37:34.604Z,1572
2017-09-20T05:38:34.599Z,1532
2017-09-20T05:39:34.588Z,1564
2017-09-20T05:40:34.582Z,1592
2017-09-20T05:41:34.577Z,1616
2017-09-20T05:42:34.572Z,1648
2017-09-20T05:43:34.558Z,1680
2017-09-20T05:44:34.550Z,1716
2017-09-20T05:45:34.541Z,1744
2017-09-20T05:46:34.233Z,1780
2017-09-20T05:47:34.527Z,1816
2017-09-20T05:48:33.902Z,1836
2017-09-20T05:49:34.517Z,1860
2017-09-20T05:50:34.507Z,1912
2017-09-20T05:51:34.497Z,1956
2017-09-20T05:52:34.493Z,2004
2017-09-20T05:53:34.485Z,2056
2017-09-20T05:54:34.170Z,2144
2017-09-20T05:55:34.161Z,2240
2017-09-20T05:56:34.464Z,2360
2017-09-20T05:57:34.150Z,2480
2017-09-20T05:58:33.833Z,2600
2017-09-20T05:59:34.131Z,2700
2017-09-20T06:00:34.132Z,2792
2017-09-20T06:01:34.459Z,2884
2017-09-20T06:02:34.109Z,2960
2017-09-20T06:03:34.410Z,3016
2017-09-20T06:04:34.094Z,3088
2017-09-20T06:05:34.399Z,3184
2017-09-20T06:06:33.767Z,3268
2017-09-20T06:07:34.072Z,3348
2017-09-20T06:08:34.064Z,3424
2017-09-20T06:09:34.062Z,3544
2017-09-20T06:10:34.054Z,3624
2017-09-20T06:11:34.048Z,3700
2017-09-20T06:12:34.342Z,3756
2017-09-20T06:13:33.725Z,3784
2017-09-20T06:14:34.024Z,3804
2017-09-20T06:15:34.325Z,3824
2017-09-20T06:16:34.017Z,3840
2017-09-20T06:17:34.004Z,3848
2017-09-20T06:18:34.306Z,3836
2017-09-20T06:19:33.989Z,3824
2017-09-20T06:20:34.289Z,3832
2017-09-20T06:21:33.666Z,3856
2017-09-20T06:22:33.966Z,3880
2017-09-20T06:23:33.650Z,3920
2017-09-20T06:24:33.337Z,3972
2017-09-20T06:25:33.329Z,4016
2017-09-20T06:26:34.247Z,4048
2017-09-20T06:27:33.319Z,4072
2017-09-20T06:28:33.954Z,4128
2017-09-20T06:29:33.920Z,4200
2017-09-20T06:30:33.914Z,4260
2017-09-20T06:31:33.599Z,4288
2017-09-20T06:32:33.897Z,4288
2017-09-20T06:33:33.891Z,4260
2017-09-20T06:34:33.587Z,4236
2017-09-20T06:35:34.187Z,4224
2017-09-20T06:36:33.874Z,4196
2017-09-20T06:37:34.173Z,4152
2017-09-20T06:38:34.170Z,4116
2017-09-20T06:39:33.852Z,4104
2017-09-20T06:40:33.845Z,4152
2017-09-20T06:41:33.846Z,4272
2017-09-20T06:42:34.143Z,4416
2017-09-20T06:43:34.136Z,4568
2017-09-20T06:44:34.124Z,4672
2017-09-20T06:45:33.820Z,4764
2017-09-20T06:46:34.115Z,4844
2017-09-20T06:47:33.798Z,4972
2017-09-20T06:48:34.107Z,5208
2017-09-20T06:49:33.787Z,5620
2017-09-20T06:50:33.779Z,6252
2017-09-20T06:51:33.775Z,7068
2017-09-20T06:52:33.458Z,8168
2017-09-20T06:53:33.758Z,9144
2017-09-20T06:54:33.754Z,9552
2017-09-20T06:55:33.754Z,9232
2017-09-20T06:56:33.436Z,8592
2017-09-20T06:57:33.738Z,8160
2017-09-20T06:58:33.734Z,7888
2017-09-20T06:59:33.729Z,7632
2017-09-20T07:00:33.712Z,7532
2017-09-20T07:01:34.021Z,7612
2017-09-20T07:02:34.269Z,7676
2017-09-20T07:03:34.009Z,7648
2017-09-20T07:04:34.000Z,7760
2017-09-20T07:05:33.996Z,7604
2017-09-20T07:06:33.994Z,6988
2017-09-20T07:07:33.990Z,6604
2017-09-20T07:08:33.672Z,6636
2017-09-20T07:09:33.975Z,6944
2017-09-20T07:10:33.973Z,7416
2017-09-20T07:11:33.968Z,7976
2017-09-20T07:12:33.959Z,8696
2017-09-20T07:13:33.955Z,9616
2017-09-20T07:14:33.639Z,10852
2017-09-20T07:15:33.943Z,14420
2017-09-20T07:16:33.934Z,28928
2017-09-20T07:17:33.934Z,19968
2017-09-20T07:18:33.933Z,39584
2017-09-20T07:19:33.916Z,44736
2017-09-20T07:20:33.915Z,35712
2017-09-20T07:21:33.600Z,36096
2017-09-20T07:22:33.595Z,27520
2017-09-20T07:23:33.899Z,24544
2017-09-20T07:24:33.593Z,24896
2017-09-20T07:25:33.278Z,19872
2017-09-20T07:26:33.888Z,16448
2017-09-20T07:27:33.895Z,16288
2017-09-20T07:28:33.886Z,16256
2017-09-20T07:29:33.883Z,13796
2017-09-20T07:30:33.569Z,13252
2017-09-20T07:31:33.569Z,11724
2017-09-20T07:32:33.568Z,9668
2017-09-20T07:33:33.556Z,8376
2017-09-20T07:34:33.867Z,7632
2017-09-20T07:35:33.553Z,7592
2017-09-20T07:36:33.860Z,10592
2017-09-20T07:37:33.557Z,14012
2017-09-20T07:38:33.246Z,21408
2017-09-20T07:39:33.858Z,26400
2017-09-20T07:40:33.850Z,24832
2017-09-20T07:41:33.843Z,25504
2017-09-20T07:42:33.533Z,29024
2017-09-20T07:43:34.267Z,23232
2017-09-20T07:44:33.841Z,31776
2017-09-20T07:45:33.533Z,23424
2017-09-20T07:46:33.527Z,26976
2017-09-20T07:47:33.528Z,27040
2017-09-20T07:48:33.833Z,29568
2017-09-20T07:49:33.834Z,35232
2017-09-20T07:50:33.830Z,32416
2017-09-20T07:51:33.827Z,33152
2017-09-20T07:52:33.829Z,36032
2017-09-20T07:53:33.824Z,36768
2017-09-20T07:54:33.827Z,37696
2017-09-20T07:55:33.824Z,38144
2017-09-20T07:56:33.856Z,37536
2017-09-20T07:57:33.524Z,36352
2017-09-20T07:58:33.203Z,38848
2017-09-20T07:59:33.823Z,38208
2017-09-20T08:00:33.821Z,21856
2017-09-20T08:01:33.833Z,9972
2017-09-20T08:02:33.513Z,10264
2017-09-20T08:03:33.204Z,10480
2017-09-20T08:04:33.820Z,10188
2017-09-20T08:05:33.203Z,9848
2017-09-20T08:06:33.518Z,9576
2017-09-20T08:07:33.514Z,9692
2017-09-20T08:08:33.829Z,9292
2017-09-20T08:09:33.820Z,9056
2017-09-20T08:10:33.510Z,9172
2017-09-20T08:11:33.815Z,9204
2017-09-20T08:12:33.506Z,9204
2017-09-20T08:13:33.812Z,9236
2017-09-20T08:14:33.503Z,9304
2017-09-20T08:15:33.807Z,9652
2017-09-20T08:16:33.808Z,9744
2017-09-20T08:17:33.804Z,9640
2017-09-20T08:18:33.186Z,9620
2017-09-20T08:19:33.489Z,9672
2017-09-20T08:20:33.800Z,9596
2017-09-20T08:21:33.488Z,9564
2017-09-20T08:22:33.806Z,9700
2017-09-20T08:23:33.482Z,9604
2017-09-20T08:24:33.786Z,9396
2017-09-20T08:25:33.477Z,9312
2017-09-20T08:26:33.489Z,9756
2017-09-20T08:27:33.782Z,9652
2017-09-20T08:28:33.777Z,10884
2017-09-20T08:29:33.470Z,17312
2017-09-20T08:30:33.465Z,18752
2017-09-20T08:31:33.464Z,15528
2017-09-20T08:32:33.455Z,12912
2017-09-20T08:33:33.458Z,12788
2017-09-20T08:34:33.455Z,15884
2017-09-20T08:35:33.449Z,17920
2017-09-20T08:36:33.444Z,17888
2017-09-20T08:37:33.450Z,14424
2017-09-20T08:38:33.436Z,12428
2017-09-20T08:39:33.438Z,11268
2017-09-20T08:40:33.126Z,11276
2017-09-20T08:41:33.741Z,11192
2017-09-20T08:42:33.119Z,11900
2017-09-20T08:43:33.428Z,11696
2017-09-20T08:44:33.426Z,12600
2017-09-20T08:45:33.153Z,15592
2017-09-20T08:46:33.419Z,15224
2017-09-20T08:47:33.422Z,13724
2017-09-20T08:48:33.724Z,12556
2017-09-20T08:49:33.717Z,11012
2017-09-20T08:50:33.409Z,10236
2017-09-20T08:51:33.402Z,9168
2017-09-20T08:52:33.706Z,8512
2017-09-20T08:53:33.401Z,9260
2017-09-20T08:54:33.393Z,9152
2017-09-20T08:55:33.394Z,8800
2017-09-20T08:56:33.950Z,8424
2017-09-20T08:57:33.390Z,8144
2017-09-20T08:58:33.384Z,7628
2017-09-20T08:59:33.380Z,7588
2017-09-20T09:00:33.692Z,7616
2017-09-20T09:01:33.693Z,7612
2017-09-20T09:02:33.373Z,7368
2017-09-20T09:03:33.684Z,7200
2017-09-20T09:04:32.756Z,7060
2017-09-20T09:05:33.364Z,7484
2017-09-20T09:06:33.366Z,7912
2017-09-20T09:07:33.053Z,8056
2017-09-20T09:08:33.358Z,8164
2017-09-20T09:09:33.355Z,7976
2017-09-20T09:10:33.665Z,8004
2017-09-20T09:11:33.346Z,7804
2017-09-20T09:12:33.348Z,7504
2017-09-20T09:13:33.035Z,7884
2017-09-20T09:14:33.650Z,8364
2017-09-20T09:15:33.034Z,8468
2017-09-20T09:16:33.020Z,9000
2017-09-20T09:17:33.331Z,10432
2017-09-20T09:18:33.325Z,10064
2017-09-20T09:19:33.320Z,9828
2017-09-20T09:20:33.318Z,11472
2017-09-20T09:21:33.314Z,14260
2017-09-20T09:22:33.317Z,14388
2017-09-20T09:23:33.312Z,13556
2017-09-20T09:24:33.311Z,12404
2017-09-20T09:25:33.303Z,12012
2017-09-20T09:26:33.612Z,11896
2017-09-20T09:27:33.547Z,11576
2017-09-20T09:28:33.296Z,10620
2017-09-20T09:29:32.987Z,10812
2017-09-20T09:30:33.292Z,12104
2017-09-20T09:31:32.975Z,11592
2017-09-20T09:32:33.280Z,10524
2017-09-20T09:33:33.589Z,9428
2017-09-20T09:34:33.273Z,9144
2017-09-20T09:35:33.280Z,9348
2017-09-20T09:36:33.270Z,9500
2017-09-20T09:37:33.573Z,10104
2017-09-20T09:38:33.575Z,12144
2017-09-20T09:39:33.570Z,13504
2017-09-20T09:40:33.573Z,14672
2017-09-20T09:41:33.255Z,13584
2017-09-20T09:42:33.567Z,12208
2017-09-20T09:43:33.569Z,10916
2017-09-20T09:44:33.557Z,11360
2017-09-20T09:45:33.564Z,13416
2017-09-20T09:46:33.247Z,14188
2017-09-20T09:47:33.251Z,14104
2017-09-20T09:48:33.550Z,14088
2017-09-20T09:49:33.240Z,13312
2017-09-20T09:50:33.236Z,12960
2017-09-20T09:51:33.238Z,12904
2017-09-20T09:52:33.540Z,12460
2017-09-20T09:53:33.538Z,11004
2017-09-20T09:54:33.231Z,8920
2017-09-20T09:55:33.231Z,7364
2017-09-20T09:56:33.229Z,6888
2017-09-20T09:57:33.534Z,6484
2017-09-20T09:58:33.536Z,6588
2017-09-20T09:59:33.216Z,7276
2017-09-20T10:00:33.219Z,8032
2017-09-20T10:01:33.222Z,8748
2017-09-20T10:02:32.903Z,10116
2017-09-20T10:03:32.905Z,11008
2017-09-20T10:04:33.222Z,11796
2017-09-20T10:05:33.207Z,12036
2017-09-20T10:06:33.515Z,11356
2017-09-20T10:07:33.512Z,10716
2017-09-20T10:08:33.205Z,10356
2017-09-20T10:09:33.512Z,10624
2017-09-20T10:10:33.198Z,11276
2017-09-20T10:11:33.199Z,11224
2017-09-20T10:12:32.889Z,11624
2017-09-20T10:13:33.504Z,11192
2017-09-20T10:14:33.191Z,10608
2017-09-20T10:15:33.187Z,9396
2017-09-20T10:16:33.497Z,7312
2017-09-20T10:17:33.507Z,5996
2017-09-20T10:18:33.490Z,5968
2017-09-20T10:19:33.494Z,6816
2017-09-20T10:20:33.491Z,7800
2017-09-20T10:21:33.486Z,8336
2017-09-20T10:22:33.180Z,8852
2017-09-20T10:23:33.489Z,9104
2017-09-20T10:24:33.493Z,8572
2017-09-20T10:25:33.489Z,7856
2017-09-20T10:26:33.485Z,7664
2017-09-20T10:27:33.479Z,7292
2017-09-20T10:28:33.480Z,6784
2017-09-20T10:29:33.480Z,6460
2017-09-20T10:30:33.473Z,6176
2017-09-20T10:31:33.473Z,6468
2017-09-20T10:32:33.468Z,7288
2017-09-20T10:33:33.467Z,7816
2017-09-20T10:34:33.469Z,8124
2017-09-20T10:35:33.460Z,8456
2017-09-20T10:36:33.151Z,7824
2017-09-20T10:37:33.144Z,7652
2017-09-20T10:38:33.456Z,7632
2017-09-20T10:39:33.149Z,7808
2017-09-20T10:40:33.454Z,7688
2017-09-20T10:41:33.149Z,7576
2017-09-20T10:42:33.139Z,7664
2017-09-20T10:43:32.828Z,7920
2017-09-20T10:44:33.443Z,8216
2017-09-20T10:45:33.438Z,8716
2017-09-20T10:46:33.131Z,9212
2017-09-20T10:47:33.438Z,9812
2017-09-20T10:48:33.476Z,10552
2017-09-20T10:49:33.430Z,11292
2017-09-20T10:50:33.443Z,11880
2017-09-20T10:51:33.119Z,13088
2017-09-20T10:52:33.429Z,15068
2017-09-20T10:53:33.114Z,16096
2017-09-20T10:54:33.418Z,15376
2017-09-20T10:55:33.111Z,13972
2017-09-20T10:56:32.804Z,14220
2017-09-20T10:57:33.111Z,15936
2017-09-20T10:58:33.139Z,16736
2017-09-20T10:59:32.797Z,16768
2017-09-20T11:00:33.102Z,16192
2017-09-20T11:01:33.658Z,15052
2017-09-20T11:02:33.102Z,14688
2017-09-20T11:03:33.416Z,14164
2017-09-20T11:04:33.416Z,13676
2017-09-20T11:05:33.102Z,13176
2017-09-20T11:06:33.100Z,12656
2017-09-20T11:07:33.097Z,11924
2017-09-20T11:08:33.417Z,11588
2017-09-20T11:09:33.090Z,11448
2017-09-20T11:10:33.093Z,11100
2017-09-20T11:11:32.785Z,10824
2017-09-20T11:12:33.129Z,10280
2017-09-20T11:13:33.090Z,9476
2017-09-20T11:14:32.780Z,8680
2017-09-20T11:15:33.089Z,7536
2017-09-20T11:16:33.396Z,6852
2017-09-20T11:17:33.084Z,6412
2017-09-20T11:18:33.087Z,6064
2017-09-20T11:19:33.094Z,5784
2017-09-20T11:20:33.085Z,5640
2017-09-20T11:21:32.775Z,5716
2017-09-20T11:22:33.090Z,6012
2017-09-20T11:23:33.086Z,6828
2017-09-20T11:24:33.082Z,7876
2017-09-20T11:25:33.113Z,8900
2017-09-20T11:26:33.398Z,10084
2017-09-20T11:27:33.082Z,11092
2017-09-20T11:28:33.075Z,12040
2017-09-20T11:29:33.080Z,12668
2017-09-20T11:30:33.383Z,13072
2017-09-20T11:31:33.071Z,13248
2017-09-20T11:32:33.325Z,12824
2017-09-20T11:33:33.379Z,11864
2017-09-20T11:34:33.071Z,10704
2017-09-20T11:35:33.066Z,9212
2017-09-20T11:36:33.381Z,7956
2017-09-20T11:37:33.385Z,7452
2017-09-20T11:38:33.376Z,7552
2017-09-20T11:39:33.381Z,7828
2017-09-20T11:40:33.369Z,8160
2017-09-20T11:41:33.408Z,8716
2017-09-20T11:42:33.379Z,9208
2017-09-20T11:43:33.062Z,9624
2017-09-20T11:44:33.376Z,9924
2017-09-20T11:45:33.055Z,10068
2017-09-20T11:46:33.075Z,10028
2017-09-20T11:47:33.361Z,10004
2017-09-20T11:48:33.050Z,9936
2017-09-20T11:49:33.051Z,10148
2017-09-20T11:50:33.360Z,10368
2017-09-20T11:51:33.358Z,11220
2017-09-20T11:52:33.048Z,12300
2017-09-20T11:53:33.348Z,13324
2017-09-20T11:54:33.386Z,13384
2017-09-20T11:55:33.355Z,13312
2017-09-20T11:56:33.355Z,13204
2017-09-20T11:57:33.357Z,12908
2017-09-20T11:58:32.725Z,12548
2017-09-20T11:59:33.338Z,12132
2017-09-20T12:00:33.345Z,11800
2017-09-20T12:01:33.032Z,11524
2017-09-20T12:02:33.033Z,11320
2017-09-20T12:03:33.591Z,10988
2017-09-20T12:04:33.350Z,10632
2017-09-20T12:05:33.029Z,10436
2017-09-20T12:06:33.023Z,10312
2017-09-20T12:07:33.329Z,10192
2017-09-20T12:08:33.019Z,9976
2017-09-20T12:09:33.344Z,10148
2017-09-20T12:10:32.707Z,10352
2017-09-20T12:11:32.705Z,10364
2017-09-20T12:12:33.329Z,10200
2017-09-20T12:13:33.013Z,9692
2017-09-20T12:14:33.011Z,9192
2017-09-20T12:15:33.321Z,8804
2017-09-20T12:16:32.387Z,8492
2017-09-20T12:17:33.010Z,8308
2017-09-20T12:18:33.002Z,8292
2017-09-20T12:19:33.312Z,8064
2017-09-20T12:20:33.312Z,8192
2017-09-20T12:21:33.310Z,8212
2017-09-20T12:22:32.687Z,8252
2017-09-20T12:23:33.001Z,8888
2017-09-20T12:24:33.301Z,9412
2017-09-20T12:25:32.993Z,10368
2017-09-20T12:26:33.302Z,11340
2017-09-20T12:27:33.294Z,12400
2017-09-20T12:28:33.296Z,13248
2017-09-20T12:29:33.291Z,13944
2017-09-20T12:30:33.287Z,14276
2017-09-20T12:31:33.285Z,14332
2017-09-20T12:32:33.289Z,14068
2017-09-20T12:33:33.296Z,13712
2017-09-20T12:34:33.524Z,13440
2017-09-20T12:35:33.281Z,13388
2017-09-20T12:36:33.283Z,13372
2017-09-20T12:37:32.960Z,13176
2017-09-20T12:38:32.967Z,13020
2017-09-20T12:39:33.270Z,12900
2017-09-20T12:40:32.973Z,12760
2017-09-20T12:41:33.263Z,12540
2017-09-20T12:42:32.341Z,12024
2017-09-20T12:43:33.281Z,11468
2017-09-20T12:44:33.260Z,10940
2017-09-20T12:45:32.641Z,10500
2017-09-20T12:46:32.954Z,10216
2017-09-20T12:47:33.259Z,9968
2017-09-20T12:48:33.260Z,9904
2017-09-20T12:49:32.947Z,9844
2017-09-20T12:50:32.944Z,9656
2017-09-20T12:51:32.946Z,9372
2017-09-20T12:52:33.268Z,9132
2017-09-20T12:53:32.938Z,9072
2017-09-20T12:54:32.630Z,9116
2017-09-20T12:55:32.628Z,9188
2017-09-20T12:56:32.627Z,9300
2017-09-20T12:57:32.945Z,9444
2017-09-20T12:58:32.936Z,9652
2017-09-20T12:59:32.622Z,9904
2017-09-20T13:00:32.931Z,10164
2017-09-20T13:01:32.927Z,10108
2017-09-20T13:02:32.616Z,10152
2017-09-20T13:03:33.236Z,10372
2017-09-20T13:04:32.920Z,10688
2017-09-20T13:05:32.922Z,11108
2017-09-20T13:06:32.607Z,11568
2017-09-20T13:07:32.914Z,11784
2017-09-20T13:08:32.921Z,11876
2017-09-20T13:09:32.912Z,11880
2017-09-20T13:10:32.608Z,11792
2017-09-20T13:11:32.907Z,11696
2017-09-20T13:12:32.907Z,11648
2017-09-20T13:13:32.907Z,11648
2017-09-20T13:14:33.209Z,11644
2017-09-20T13:15:32.594Z,11612
2017-09-20T13:16:32.901Z,11492
2017-09-20T13:17:33.212Z,11360
2017-09-20T13:18:32.892Z,11244
2017-09-20T13:19:32.896Z,11156
2017-09-20T13:20:33.202Z,11068
2017-09-20T13:21:32.893Z,11004
2017-09-20T13:22:33.193Z,10984
2017-09-20T13:23:33.196Z,11016
2017-09-20T13:24:33.194Z,11100
2017-09-20T13:25:33.191Z,11252
2017-09-20T13:26:33.205Z,11488
2017-09-20T13:27:32.582Z,11704
2017-09-20T13:28:33.184Z,11820
2017-09-20T13:29:33.189Z,11820
2017-09-20T13:30:33.184Z,11732
2017-09-20T13:31:33.181Z,11632
2017-09-20T13:32:33.185Z,11584
2017-09-20T13:33:33.183Z,11588
2017-09-20T13:34:33.175Z,11632
2017-09-20T13:35:33.170Z,11608
2017-09-20T13:36:33.173Z,11480
2017-09-20T13:37:33.175Z,11260
2017-09-20T13:38:32.864Z,11012
2017-09-20T13:39:33.168Z,10804